createdAt,value
2023-07-25T00:00:53.728Z,14.07
2023-07-25T00:03:19.936Z,14.05
2023-07-25T00:05:46.180Z,13.99
2023-07-25T00:08:12.371Z,13.97
2023-07-25T00:10:38.665Z,14.10
2023-07-25T00:13:04.948Z,14.14
2023-07-25T00:15:31.209Z,14.02
2023-07-25T00:17:57.539Z,14.08
2023-07-25T00:20:23.815Z,14.06
2023-07-25T00:22:50.154Z,14.06
2023-07-25T00:25:16.415Z,14.00
2023-07-25T00:27:42.686Z,13.88
2023-07-25T00:30:08.929Z,13.82
2023-07-25T00:32:35.285Z,13.93
2023-07-25T00:35:01.530Z,13.83
2023-07-25T00:37:27.768Z,13.95
2023-07-25T00:39:53.988Z,13.79
2023-07-25T00:42:20.259Z,13.68
2023-07-25T00:44:46.530Z,13.67
2023-07-25T00:47:12.799Z,13.79
2023-07-25T00:49:39.007Z,13.74
2023-07-25T00:52:05.231Z,13.79
2023-07-25T00:54:31.476Z,13.77
2023-07-25T00:56:57.738Z,13.77
2023-07-25T00:59:23.933Z,13.89
2023-07-25T01:01:50.242Z,13.86
2023-07-25T01:04:16.471Z,13.77
2023-07-25T01:06:42.697Z,13.69
2023-07-25T01:09:08.928Z,13.64
2023-07-25T01:11:35.193Z,13.70
2023-07-25T01:14:01.448Z,13.71
2023-07-25T01:16:27.700Z,13.66
2023-07-25T01:18:53.994Z,13.73
2023-07-25T01:21:20.441Z,13.74
2023-07-25T01:23:46.649Z,13.73
2023-07-25T01:26:12.927Z,13.80
2023-07-25T01:28:39.148Z,13.67
2023-07-25T01:31:05.383Z,13.71
2023-07-25T01:33:31.691Z,13.65
2023-07-25T01:35:57.971Z,13.77
2023-07-25T01:38:24.655Z,13.73
2023-07-25T01:40:50.893Z,13.68
2023-07-25T01:43:17.151Z,13.73
2023-07-25T01:45:43.477Z,13.77
2023-07-25T01:48:09.732Z,13.71
2023-07-25T01:50:35.931Z,13.74
2023-07-25T01:53:02.148Z,13.71
2023-07-25T01:55:28.427Z,13.71
2023-07-25T01:57:54.676Z,13.78
2023-07-25T02:00:20.906Z,13.74
2023-07-25T02:02:47.206Z,13.81
2023-07-25T02:05:13.506Z,13.74
2023-07-25T02:07:39.836Z,13.75
2023-07-25T02:10:06.103Z,13.62
2023-07-25T02:12:32.485Z,13.52
2023-07-25T02:14:58.732Z,13.65
2023-07-25T02:17:24.991Z,13.58
2023-07-25T02:19:51.441Z,13.56
2023-07-25T02:22:17.796Z,13.55
2023-07-25T02:24:44.039Z,13.53
2023-07-25T02:27:10.276Z,13.54
2023-07-25T02:29:36.481Z,13.60
2023-07-25T02:32:02.709Z,13.63
2023-07-25T02:34:28.992Z,13.55
2023-07-25T02:36:55.270Z,13.59
2023-07-25T02:39:21.549Z,13.62
2023-07-25T02:41:47.741Z,13.54
2023-07-25T02:44:13.999Z,13.53
2023-07-25T02:46:40.298Z,13.62
2023-07-25T02:49:06.599Z,13.47
2023-07-25T02:51:33.106Z,13.61
2023-07-25T02:53:59.639Z,13.50
2023-07-25T02:56:25.824Z,13.63
2023-07-25T02:58:52.094Z,13.48
2023-07-25T03:01:19.055Z,13.50
2023-07-25T03:03:45.301Z,13.46
2023-07-25T03:06:11.540Z,13.39
2023-07-25T03:08:37.750Z,13.49
2023-07-25T03:11:03.989Z,13.53
2023-07-25T03:13:31.720Z,13.55
2023-07-25T03:15:57.903Z,13.61
2023-07-25T03:18:24.159Z,13.59
2023-07-25T03:20:50.436Z,13.63
2023-07-25T03:23:16.733Z,13.50
2023-07-25T03:25:42.984Z,13.45
2023-07-25T03:28:09.210Z,13.46
2023-07-25T03:30:35.556Z,13.50
2023-07-25T03:33:01.829Z,13.44
2023-07-25T03:35:28.107Z,13.47
2023-07-25T03:37:54.376Z,13.48
2023-07-25T03:40:20.604Z,13.47
2023-07-25T03:42:46.867Z,13.38
2023-07-25T03:45:13.076Z,13.38
2023-07-25T03:47:39.396Z,13.48
2023-07-25T03:50:05.733Z,13.43
2023-07-25T03:52:32.036Z,13.36
2023-07-25T03:54:58.253Z,13.34
2023-07-25T03:57:24.493Z,13.45
2023-07-25T03:59:50.681Z,13.32
2023-07-25T04:02:16.954Z,13.38
2023-07-25T04:04:43.360Z,13.46
2023-07-25T04:07:09.656Z,13.35
2023-07-25T04:09:35.875Z,13.34
2023-07-25T04:12:02.103Z,13.32
2023-07-25T04:14:28.332Z,13.40
2023-07-25T04:16:54.557Z,13.33
2023-07-25T04:19:20.831Z,13.37
2023-07-25T04:21:47.192Z,13.36
2023-07-25T04:24:13.715Z,13.32
2023-07-25T04:26:40.029Z,13.38
2023-07-25T04:29:06.391Z,13.31
2023-07-25T04:31:32.899Z,13.27
2023-07-25T04:33:59.583Z,13.22
2023-07-25T04:36:25.919Z,13.29
2023-07-25T04:38:52.200Z,13.18
2023-07-25T04:41:18.424Z,13.23
2023-07-25T04:43:44.693Z,13.28
2023-07-25T04:46:10.908Z,13.22
2023-07-25T04:48:37.227Z,13.32
2023-07-25T04:51:03.493Z,13.34
2023-07-25T04:53:31.707Z,13.35
2023-07-25T04:55:57.907Z,13.21
2023-07-25T04:58:24.149Z,13.17
2023-07-25T05:00:50.358Z,13.24
2023-07-25T05:03:16.623Z,13.43
2023-07-25T05:05:43.071Z,13.48
2023-07-25T05:08:09.336Z,13.38
2023-07-25T05:10:35.613Z,13.38
2023-07-25T05:13:01.870Z,13.37
2023-07-25T05:15:28.127Z,13.55
2023-07-25T05:17:54.397Z,13.43
2023-07-25T05:20:20.682Z,13.44
2023-07-25T05:22:47.534Z,13.46
2023-07-25T05:25:13.760Z,13.40
2023-07-25T05:27:39.999Z,13.46
2023-07-25T05:30:06.284Z,13.29
2023-07-25T05:32:33.822Z,13.27
2023-07-25T05:35:01.023Z,13.43
2023-07-25T05:37:27.278Z,13.48
2023-07-25T05:39:53.476Z,13.53
2023-07-25T05:42:19.761Z,13.55
2023-07-25T05:44:45.993Z,13.42
2023-07-25T05:47:12.222Z,13.30
2023-07-25T05:49:38.419Z,13.41
2023-07-25T05:52:04.647Z,13.45
2023-07-25T05:54:30.922Z,13.38
2023-07-25T05:56:57.171Z,13.63
2023-07-25T05:59:23.421Z,13.53
2023-07-25T06:01:49.674Z,13.65
2023-07-25T06:04:15.893Z,13.76
2023-07-25T06:06:42.080Z,13.99
2023-07-25T06:09:08.296Z,14.19
2023-07-25T06:11:34.748Z,14.27
2023-07-25T06:14:01.052Z,14.31
2023-07-25T06:16:27.384Z,14.42
2023-07-25T06:18:53.648Z,14.18
2023-07-25T06:21:19.921Z,14.38
2023-07-25T06:23:46.194Z,14.41
2023-07-25T06:26:12.442Z,14.24
2023-07-25T06:28:38.706Z,14.12
2023-07-25T06:31:05.046Z,14.32
2023-07-25T06:33:31.350Z,14.19
2023-07-25T06:35:57.641Z,14.08
2023-07-25T06:38:23.834Z,14.22
2023-07-25T06:40:50.103Z,14.11
2023-07-25T06:43:16.342Z,14.18
2023-07-25T06:45:42.541Z,14.25
2023-07-25T06:48:08.780Z,14.30
2023-07-25T06:50:34.984Z,14.16
2023-07-25T06:53:01.205Z,14.18
2023-07-25T06:55:27.456Z,14.17
2023-07-25T06:57:53.737Z,14.21
2023-07-25T07:00:20.024Z,14.20
2023-07-25T07:02:46.340Z,14.15
2023-07-25T07:05:23.843Z,14.22
2023-07-25T07:07:56.048Z,14.22
2023-07-25T07:10:22.298Z,14.18
2023-07-25T07:12:48.554Z,14.13
2023-07-25T07:15:14.792Z,14.11
2023-07-25T07:17:41.007Z,14.20
2023-07-25T07:20:07.287Z,14.20
2023-07-25T07:22:33.512Z,14.18
2023-07-25T07:24:59.712Z,14.21
2023-07-25T07:27:25.949Z,14.17
2023-07-25T07:29:52.173Z,14.00
2023-07-25T07:32:18.423Z,14.03
2023-07-25T07:34:44.750Z,14.24
2023-07-25T07:37:11.081Z,14.32
2023-07-25T07:39:37.284Z,14.38
2023-07-25T07:42:03.510Z,14.54
2023-07-25T07:44:29.706Z,14.42
2023-07-25T07:46:55.926Z,14.40
2023-07-25T07:49:22.139Z,14.39
2023-07-25T07:52:05.049Z,14.32
2023-07-25T07:54:34.609Z,14.54
2023-07-25T07:57:00.987Z,14.46
2023-07-25T07:59:27.252Z,14.60
2023-07-25T08:01:53.576Z,14.51
2023-07-25T08:04:20.049Z,14.50
2023-07-25T08:06:46.330Z,14.61
2023-07-25T08:09:12.991Z,14.77
2023-07-25T08:11:39.233Z,14.75
2023-07-25T08:14:05.514Z,14.76
2023-07-25T08:16:31.860Z,14.76
2023-07-25T08:18:58.190Z,14.84
2023-07-25T08:21:24.488Z,14.78
2023-07-25T08:23:50.738Z,14.92
2023-07-25T08:26:16.976Z,15.15
2023-07-25T08:28:43.274Z,15.25
2023-07-25T08:31:09.512Z,15.38
2023-07-25T08:33:35.726Z,15.18
2023-07-25T08:36:02.033Z,15.28
2023-07-25T08:38:28.307Z,15.35
2023-07-25T08:40:54.566Z,15.45
2023-07-25T08:43:20.853Z,15.49
2023-07-25T08:45:47.093Z,15.43
2023-07-25T08:48:13.457Z,15.56
2023-07-25T08:50:39.804Z,15.59
2023-07-25T08:53:06.024Z,15.66
2023-07-25T08:55:32.240Z,15.35
2023-07-25T08:57:58.476Z,15.49
2023-07-25T09:00:24.715Z,15.62
2023-07-25T09:02:53.912Z,15.76
2023-07-25T09:05:20.546Z,15.60
2023-07-25T09:07:46.813Z,15.47
2023-07-25T09:10:13.049Z,15.44
2023-07-25T09:12:39.272Z,15.59
2023-07-25T09:15:05.547Z,15.59
2023-07-25T09:17:31.887Z,15.62
2023-07-25T09:19:58.173Z,15.64
2023-07-25T09:22:24.403Z,15.50
2023-07-25T09:24:50.707Z,15.59
2023-07-25T09:27:17.042Z,15.60
2023-07-25T09:29:43.320Z,15.77
2023-07-25T09:32:09.580Z,15.86
2023-07-25T09:34:37.937Z,15.80
2023-07-25T09:37:05.480Z,15.83
2023-07-25T09:39:32.382Z,15.79
2023-07-25T09:41:58.710Z,15.84
2023-07-25T09:44:24.987Z,15.72
2023-07-25T09:46:51.205Z,15.56
2023-07-25T09:49:17.448Z,15.83
2023-07-25T09:51:43.684Z,16.07
2023-07-25T09:54:09.932Z,16.13
2023-07-25T09:56:37.966Z,16.28
2023-07-25T09:59:07.615Z,16.51
2023-07-25T10:01:34.393Z,16.71
2023-07-25T10:04:00.946Z,16.83
2023-07-25T10:06:27.198Z,16.80
2023-07-25T10:08:53.490Z,16.68
2023-07-25T10:11:19.745Z,16.62
2023-07-25T10:13:45.941Z,16.71
2023-07-25T10:16:12.248Z,16.50
2023-07-25T10:18:38.637Z,16.60
2023-07-25T10:21:04.984Z,16.67
2023-07-25T10:23:31.791Z,16.52
2023-07-25T10:25:58.102Z,16.65
2023-07-25T10:28:24.390Z,16.57
2023-07-25T10:30:50.623Z,16.67
2023-07-25T10:33:16.856Z,16.70
2023-07-25T10:35:43.104Z,16.70
2023-07-25T10:38:09.821Z,16.76
2023-07-25T10:40:36.249Z,16.68
2023-07-25T10:43:07.430Z,16.83
2023-07-25T10:45:34.215Z,16.93
2023-07-25T10:48:00.668Z,17.08
2023-07-25T10:50:26.941Z,17.51
2023-07-25T10:52:53.205Z,17.88
2023-07-25T10:55:19.463Z,18.12
2023-07-25T10:57:45.812Z,18.50
2023-07-25T11:00:12.063Z,18.94
2023-07-25T11:02:38.368Z,18.84
2023-07-25T11:05:04.630Z,18.98
2023-07-25T11:07:30.879Z,18.37
2023-07-25T11:09:57.134Z,17.67
2023-07-25T11:12:23.355Z,17.68
2023-07-25T11:14:49.630Z,17.48
2023-07-25T11:17:15.960Z,17.35
2023-07-25T11:19:42.240Z,17.23
2023-07-25T11:22:08.483Z,16.97
2023-07-25T11:24:34.772Z,16.53
2023-07-25T11:27:01.048Z,16.44
2023-07-25T11:29:27.287Z,16.73
2023-07-25T11:31:53.520Z,16.76
2023-07-25T11:34:19.793Z,16.93
2023-07-25T11:36:46.047Z,17.07
2023-07-25T11:39:12.307Z,17.32
2023-07-25T11:41:38.631Z,17.59
2023-07-25T11:44:04.923Z,17.70
2023-07-25T11:46:33.299Z,17.90
2023-07-25T11:48:59.523Z,17.82
2023-07-25T11:51:25.779Z,18.11
2023-07-25T11:53:52.070Z,18.04
2023-07-25T11:56:18.361Z,18.29
2023-07-25T11:58:45.762Z,18.38
2023-07-25T12:01:12.067Z,18.06
2023-07-25T12:03:38.360Z,17.70
2023-07-25T12:06:04.647Z,17.33
2023-07-25T12:08:30.864Z,17.15
2023-07-25T12:10:57.085Z,16.87
2023-07-25T12:13:23.290Z,16.66
2023-07-25T12:15:49.551Z,16.31
2023-07-25T12:18:15.807Z,16.23
2023-07-25T12:20:56.257Z,16.13
2023-07-25T12:23:24.620Z,15.73
2023-07-25T12:25:50.848Z,15.58
2023-07-25T12:28:17.085Z,15.45
2023-07-25T12:30:43.321Z,15.51
2023-07-25T12:33:09.644Z,15.38
2023-07-25T12:35:35.888Z,15.37
2023-07-25T12:38:02.088Z,15.51
2023-07-25T12:40:28.306Z,15.54
2023-07-25T12:42:54.535Z,15.56
2023-07-25T12:45:20.799Z,15.38
2023-07-25T12:47:47.002Z,15.41
2023-07-25T12:50:13.270Z,15.51
2023-07-25T12:52:39.576Z,15.37
2023-07-25T12:55:05.774Z,15.47
2023-07-25T12:57:32.179Z,15.49
2023-07-25T12:59:58.421Z,15.59
2023-07-25T13:02:24.786Z,15.70
2023-07-25T13:04:51.195Z,16.00
2023-07-25T13:07:17.524Z,16.10
2023-07-25T13:09:43.797Z,16.33
2023-07-25T13:12:10.080Z,16.38
2023-07-25T13:14:36.327Z,16.40
2023-07-25T13:17:02.625Z,16.23
2023-07-25T13:19:28.971Z,16.12
2023-07-25T13:21:55.273Z,16.11
2023-07-25T13:24:21.551Z,16.02
2023-07-25T13:26:47.822Z,15.89
2023-07-25T13:29:14.214Z,15.85
2023-07-25T13:31:40.442Z,15.87
2023-07-25T13:34:06.677Z,15.74
2023-07-25T13:36:32.950Z,15.53
2023-07-25T13:38:59.178Z,15.56
2023-07-25T13:41:25.498Z,15.45
2023-07-25T13:43:51.731Z,15.27
2023-07-25T13:46:17.963Z,15.25
2023-07-25T13:48:44.231Z,15.29
2023-07-25T13:51:10.457Z,15.35
2023-07-25T13:53:36.722Z,15.20
2023-07-25T13:56:02.994Z,15.24
2023-07-25T13:58:29.249Z,15.08
2023-07-25T14:00:55.502Z,15.09
2023-07-25T14:03:21.744Z,14.99
2023-07-25T14:05:48.009Z,15.04
2023-07-25T14:08:14.265Z,15.14
2023-07-25T14:10:40.574Z,15.09
2023-07-25T14:13:06.809Z,15.02
2023-07-25T14:15:33.208Z,14.93
2023-07-25T14:17:59.539Z,14.94
2023-07-25T14:20:26.015Z,14.91
2023-07-25T14:22:52.405Z,14.90
2023-07-25T14:25:18.684Z,15.09
2023-07-25T14:27:45.024Z,15.18
2023-07-25T14:30:11.327Z,15.29
2023-07-25T14:32:37.602Z,15.40
2023-07-25T14:35:03.845Z,15.22
2023-07-25T14:37:36.986Z,15.37
2023-07-25T14:40:14.737Z,15.54
2023-07-25T14:42:41.005Z,15.58
2023-07-25T14:45:07.240Z,15.52
2023-07-25T14:47:33.589Z,15.69
2023-07-25T14:49:59.943Z,15.83
2023-07-25T14:52:26.182Z,15.92
2023-07-25T14:54:52.460Z,16.08
2023-07-25T14:57:18.733Z,16.16
2023-07-25T14:59:45.030Z,16.13
2023-07-25T15:02:11.359Z,16.23
2023-07-25T15:04:37.623Z,16.46
2023-07-25T15:07:03.879Z,16.49
2023-07-25T15:09:30.149Z,16.52
2023-07-25T15:11:56.445Z,16.30
2023-07-25T15:14:23.076Z,16.12
2023-07-25T15:16:51.209Z,16.08
2023-07-25T15:19:17.590Z,16.04
2023-07-25T15:21:43.784Z,15.52
2023-07-25T15:24:10.060Z,15.48
2023-07-25T15:26:36.327Z,15.48
2023-07-25T15:29:02.729Z,15.25
2023-07-25T15:31:29.004Z,15.04
2023-07-25T15:33:55.446Z,15.00
2023-07-25T15:36:21.691Z,14.86
2023-07-25T15:38:47.917Z,14.85
2023-07-25T15:41:14.140Z,14.86
2023-07-25T15:43:40.750Z,14.84
2023-07-25T15:46:07.040Z,14.77
2023-07-25T15:48:33.347Z,14.75
2023-07-25T15:50:59.577Z,14.65
2023-07-25T15:53:25.838Z,14.64
2023-07-25T15:55:52.110Z,14.55
2023-07-25T15:58:18.360Z,14.52
2023-07-25T16:00:44.643Z,14.55
2023-07-25T16:03:10.979Z,14.63
2023-07-25T16:05:37.329Z,14.68
2023-07-25T16:08:03.586Z,14.75
2023-07-25T16:10:29.820Z,14.81
2023-07-25T16:12:56.372Z,14.76
2023-07-25T16:15:23.138Z,14.53
2023-07-25T16:17:49.405Z,14.46
2023-07-25T16:20:15.736Z,14.54
2023-07-25T16:22:41.991Z,14.35
2023-07-25T16:25:09.276Z,14.31
2023-07-25T16:27:35.497Z,14.37
2023-07-25T16:30:02.906Z,14.23
2023-07-25T16:32:29.316Z,14.19
2023-07-25T16:34:55.653Z,14.38
2023-07-25T16:37:21.951Z,14.49
2023-07-25T16:39:48.182Z,14.58
2023-07-25T16:42:14.507Z,14.55
2023-07-25T16:44:40.776Z,14.66
2023-07-25T16:47:07.019Z,14.73
2023-07-25T16:49:33.249Z,14.89
2023-07-25T16:51:59.526Z,15.06
2023-07-25T16:54:25.724Z,15.13
2023-07-25T16:56:52.157Z,15.17
2023-07-25T16:59:18.346Z,15.22
2023-07-25T17:01:44.649Z,15.47
2023-07-25T17:04:10.940Z,15.35
2023-07-25T17:06:37.172Z,15.52
2023-07-25T17:09:03.418Z,15.54
2023-07-25T17:11:30.082Z,15.69
2023-07-25T17:13:56.618Z,15.53
2023-07-25T17:16:22.925Z,15.66
2023-07-25T17:18:49.261Z,15.75
2023-07-25T17:21:18.608Z,15.94
2023-07-25T17:23:49.786Z,15.91
2023-07-25T17:26:16.058Z,15.99
2023-07-25T17:28:42.304Z,15.98
2023-07-25T17:31:08.659Z,16.03
2023-07-25T17:33:34.943Z,15.87
2023-07-25T17:36:01.223Z,15.81
2023-07-25T17:38:27.565Z,15.82
2023-07-25T17:40:53.905Z,15.54
2023-07-25T17:43:20.369Z,15.38
2023-07-25T17:45:46.735Z,15.17
2023-07-25T17:48:12.979Z,15.29
2023-07-25T17:50:39.267Z,14.95
2023-07-25T17:53:05.499Z,14.88
2023-07-25T17:55:31.729Z,14.92
2023-07-25T17:57:58.088Z,14.75
2023-07-25T18:00:24.363Z,14.60
2023-07-25T18:02:50.699Z,14.49
2023-07-25T18:05:17.016Z,14.49
2023-07-25T18:07:43.259Z,14.45
2023-07-25T18:10:09.481Z,14.34
2023-07-25T18:12:35.680Z,14.26
2023-07-25T18:15:01.934Z,14.39
2023-07-25T18:17:28.520Z,14.34
2023-07-25T18:19:54.957Z,14.41
2023-07-25T18:22:21.216Z,14.57
2023-07-25T18:24:47.444Z,14.60
2023-07-25T18:27:13.707Z,14.52
2023-07-25T18:29:39.930Z,14.65
2023-07-25T18:32:06.183Z,14.70
2023-07-25T18:34:32.408Z,14.78
2023-07-25T18:36:58.672Z,14.81
2023-07-25T18:39:24.862Z,14.84
2023-07-25T18:41:51.154Z,14.87
2023-07-25T18:44:17.355Z,14.89
2023-07-25T18:46:43.632Z,14.96
2023-07-25T18:49:09.826Z,14.93
2023-07-25T18:51:36.057Z,15.01
2023-07-25T18:54:02.308Z,15.04
2023-07-25T18:56:28.498Z,15.15
2023-07-25T18:58:54.783Z,15.11
2023-07-25T19:01:21.032Z,15.01
2023-07-25T19:03:47.341Z,14.98
2023-07-25T19:06:13.616Z,15.02
2023-07-25T19:08:40.020Z,14.95
2023-07-25T19:11:06.367Z,14.80
2023-07-25T19:13:32.639Z,14.57
2023-07-25T19:15:58.921Z,14.59
2023-07-25T19:18:25.434Z,14.34
2023-07-25T19:20:51.792Z,14.38
2023-07-25T19:23:25.713Z,14.34
2023-07-25T19:25:52.626Z,14.19
2023-07-25T19:28:19.041Z,14.17
2023-07-25T19:30:45.302Z,14.22
2023-07-25T19:33:11.590Z,14.11
2023-07-25T19:35:39.061Z,14.13
2023-07-25T19:38:06.478Z,14.06
2023-07-25T19:40:32.761Z,14.12
2023-07-25T19:42:59.044Z,14.13
2023-07-25T19:45:25.244Z,14.02
2023-07-25T19:47:51.588Z,13.96
2023-07-25T19:50:17.890Z,14.03
2023-07-25T19:52:44.137Z,14.07
2023-07-25T19:55:10.437Z,14.03
2023-07-25T19:57:36.694Z,14.01
2023-07-25T20:00:02.990Z,13.96
2023-07-25T20:02:29.347Z,13.88
2023-07-25T20:04:55.701Z,13.79
2023-07-25T20:07:21.935Z,13.79
2023-07-25T20:09:48.199Z,13.82
2023-07-25T20:12:14.440Z,13.82
2023-07-25T20:14:40.669Z,13.72
2023-07-25T20:17:06.880Z,13.67
2023-07-25T20:19:33.182Z,13.65
2023-07-25T20:21:59.455Z,13.64
2023-07-25T20:24:25.914Z,13.56
2023-07-25T20:26:52.255Z,13.62
2023-07-25T20:29:18.520Z,13.62
2023-07-25T20:31:44.750Z,13.66
2023-07-25T20:34:11.015Z,13.63
2023-07-25T20:36:37.269Z,13.66
2023-07-25T20:39:03.496Z,13.63
2023-07-25T20:41:29.703Z,13.60
2023-07-25T20:43:55.930Z,13.62
2023-07-25T20:46:22.220Z,13.52
2023-07-25T20:48:48.497Z,13.50
2023-07-25T20:51:15.073Z,13.50
2023-07-25T20:53:41.321Z,13.32
2023-07-25T20:56:07.696Z,13.30
2023-07-25T20:58:34.045Z,13.23
2023-07-25T21:01:00.264Z,13.18
2023-07-25T21:03:26.610Z,13.17
2023-07-25T21:05:52.890Z,13.11
2023-07-25T21:08:24.181Z,13.06
2023-07-25T21:10:50.444Z,13.13
2023-07-25T21:13:16.638Z,13.12
2023-07-25T21:15:42.894Z,13.19
2023-07-25T21:18:13.596Z,13.08
2023-07-25T21:20:40.447Z,13.02
2023-07-25T21:23:06.724Z,12.97
2023-07-25T21:25:33.003Z,12.96
2023-07-25T21:27:59.286Z,12.97
2023-07-25T21:30:25.767Z,12.88
2023-07-25T21:32:52.044Z,12.96
2023-07-25T21:35:18.347Z,12.92
2023-07-25T21:37:44.591Z,12.93
2023-07-25T21:40:10.795Z,12.84
2023-07-25T21:42:37.066Z,12.77
2023-07-25T21:45:03.295Z,12.90
2023-07-25T21:47:29.588Z,12.79
2023-07-25T21:49:55.865Z,12.84
2023-07-25T21:52:22.103Z,12.92
2023-07-25T21:54:48.380Z,12.90
2023-07-25T21:57:14.596Z,12.81
2023-07-25T21:59:40.808Z,12.77
2023-07-25T22:02:07.051Z,12.77
2023-07-25T22:04:33.391Z,12.75
2023-07-25T22:06:59.699Z,12.73
2023-07-25T22:09:25.977Z,12.80
2023-07-25T22:11:52.190Z,12.71
2023-07-25T22:14:18.386Z,12.71
2023-07-25T22:16:44.717Z,12.81
2023-07-25T22:19:10.930Z,12.77
2023-07-25T22:21:37.112Z,12.86
2023-07-25T22:24:03.334Z,12.71
2023-07-25T22:26:29.891Z,12.74
2023-07-25T22:28:56.361Z,12.78
2023-07-25T22:31:22.635Z,12.87
2023-07-25T22:33:48.863Z,12.96
2023-07-25T22:36:15.093Z,12.91
2023-07-25T22:38:41.373Z,12.87
2023-07-25T22:41:07.628Z,12.89
2023-07-25T22:43:33.885Z,12.91
2023-07-25T22:46:00.204Z,12.80
2023-07-25T22:48:26.513Z,12.90
2023-07-25T22:50:52.786Z,12.88
2023-07-25T22:53:19.004Z,12.93
2023-07-25T22:55:45.239Z,12.75
2023-07-25T22:58:11.502Z,12.56
2023-07-25T23:00:37.719Z,12.62
2023-07-25T23:03:04.106Z,12.44
2023-07-25T23:05:30.509Z,12.33
2023-07-25T23:07:56.740Z,12.24
2023-07-25T23:10:22.966Z,12.13
2023-07-25T23:12:49.162Z,12.03
2023-07-25T23:15:15.475Z,12.00
2023-07-25T23:17:41.745Z,12.04
2023-07-25T23:20:08.087Z,12.00
2023-07-25T23:22:34.379Z,12.02
2023-07-25T23:25:00.620Z,11.98
2023-07-25T23:27:26.948Z,12.06
2023-07-25T23:29:53.199Z,12.07
2023-07-25T23:32:19.430Z,12.03
2023-07-25T23:34:45.718Z,12.13
2023-07-25T23:37:11.999Z,12.07
2023-07-25T23:39:38.276Z,12.07
2023-07-25T23:42:04.491Z,12.05
2023-07-25T23:44:30.716Z,12.13
2023-07-25T23:46:56.979Z,12.25
2023-07-25T23:49:23.249Z,12.28
2023-07-25T23:51:49.478Z,12.13
2023-07-25T23:54:15.718Z,12.19
2023-07-25T23:56:41.991Z,12.10
2023-07-25T23:59:08.245Z,12.14
